sensor_id;sensor_type;location;lat;lon;timestamp;pressure;altitude;pressure_sealevel;temperature;humidity
71567;BME280;59403;47.456;19.120;2023-03-13T00:01:21;100647.88;;;3.60;61.62
71567;BME280;59403;47.456;19.120;2023-03-13T00:03:49;100642.62;;;3.60;61.08
71567;BME280;59403;47.456;19.120;2023-03-13T00:06:16;100627.56;;;3.51;61.69
71567;BME280;59403;47.456;19.120;2023-03-13T00:08:45;100646.84;;;3.63;61.54
71567;BME280;59403;47.456;19.120;2023-03-13T00:11:13;100643.38;;;3.62;63.11
71567;BME280;59403;47.456;19.120;2023-03-13T00:13:43;100632.91;;;3.62;63.93
71567;BME280;59403;47.456;19.120;2023-03-13T00:16:12;100637.09;;;3.65;63.48
71567;BME280;59403;47.456;19.120;2023-03-13T00:18:44;100637.91;;;3.65;65.54
71567;BME280;59403;47.456;19.120;2023-03-13T00:21:11;100642.97;;;3.68;63.98
71567;BME280;59403;47.456;19.120;2023-03-13T00:23:38;100641.88;;;3.71;63.52
71567;BME280;59403;47.456;19.120;2023-03-13T00:26:08;100619.19;;;3.59;63.10
71567;BME280;59403;47.456;19.120;2023-03-13T00:28:36;100627.13;;;3.70;63.17
71567;BME280;59403;47.456;19.120;2023-03-13T00:31:05;100651.31;;;3.73;63.29
71567;BME280;59403;47.456;19.120;2023-03-13T00:33:33;100645.12;;;3.74;64.13
71567;BME280;59403;47.456;19.120;2023-03-13T00:36:04;100633.72;;;3.75;64.66
71567;BME280;59403;47.456;19.120;2023-03-13T00:38:32;100626.69;;;3.76;64.96
71567;BME280;59403;47.456;19.120;2023-03-13T00:41:00;100626.38;;;3.80;65.33
71567;BME280;59403;47.456;19.120;2023-03-13T00:43:29;100625.31;;;3.83;65.68
71567;BME280;59403;47.456;19.120;2023-03-13T00:45:58;100615.28;;;3.77;65.88
71567;BME280;59403;47.456;19.120;2023-03-13T00:48:26;100621.19;;;3.91;65.60
71567;BME280;59403;47.456;19.120;2023-03-13T00:50:53;100612.28;;;3.94;65.75
71567;BME280;59403;47.456;19.120;2023-03-13T00:53:20;100611.44;;;3.93;66.12
71567;BME280;59403;47.456;19.120;2023-03-13T00:55:51;100616.37;;;3.98;66.05
71567;BME280;59403;47.456;19.120;2023-03-13T00:58:19;100618.88;;;3.99;65.77
71567;BME280;59403;47.456;19.120;2023-03-13T01:04:21;100609.75;;;4.05;65.66
71567;BME280;59403;47.456;19.120;2023-03-13T01:06:50;100606.78;;;4.09;64.95
71567;BME280;59403;47.456;19.120;2023-03-13T01:09:17;100594.31;;;4.13;65.46
71567;BME280;59403;47.456;19.120;2023-03-13T01:11:45;100586.44;;;4.13;64.70
71567;BME280;59403;47.456;19.120;2023-03-13T01:14:18;100577.13;;;4.09;65.82
71567;BME280;59403;47.456;19.120;2023-03-13T01:16:45;100553.50;;;3.98;66.01
71567;BME280;59403;47.456;19.120;2023-03-13T01:19:14;100559.00;;;4.06;66.72
71567;BME280;59403;47.456;19.120;2023-03-13T01:21:44;100567.22;;;4.01;67.54
71567;BME280;59403;47.456;19.120;2023-03-13T01:24:11;100549.75;;;3.89;68.42
71567;BME280;59403;47.456;19.120;2023-03-13T01:26:38;100572.84;;;4.08;67.46
71567;BME280;59403;47.456;19.120;2023-03-13T01:29:24;100580.81;;;4.06;67.82
71567;BME280;59403;47.456;19.120;2023-03-13T01:31:57;100586.66;;;4.10;68.43
71567;BME280;59403;47.456;19.120;2023-03-13T01:34:27;100577.00;;;4.10;68.69
71567;BME280;59403;47.456;19.120;2023-03-13T01:36:56;100553.38;;;3.99;68.52
71567;BME280;59403;47.456;19.120;2023-03-13T01:39:22;100563.28;;;4.07;68.44
71567;BME280;59403;47.456;19.120;2023-03-13T01:41:49;100529.97;;;3.85;68.61
71567;BME280;59403;47.456;19.120;2023-03-13T01:44:21;100567.25;;;4.12;68.79
71567;BME280;59403;47.456;19.120;2023-03-13T01:46:48;100571.88;;;4.09;69.64
71567;BME280;59403;47.456;19.120;2023-03-13T01:49:17;100553.16;;;4.02;70.27
71567;BME280;59403;47.456;19.120;2023-03-13T01:51:47;100561.84;;;4.03;70.43
71567;BME280;59403;47.456;19.120;2023-03-13T01:54:20;100540.66;;;4.06;70.53
71567;BME280;59403;47.456;19.120;2023-03-13T01:56:50;100558.47;;;4.13;70.03
71567;BME280;59403;47.456;19.120;2023-03-13T01:59:27;100557.50;;;4.14;70.26
71567;BME280;59403;47.456;19.120;2023-03-13T02:01:58;100546.16;;;4.14;70.85
71567;BME280;59403;47.456;19.120;2023-03-13T02:04:30;100549.53;;;4.16;71.00
71567;BME280;59403;47.456;19.120;2023-03-13T02:07:06;100555.59;;;4.16;71.21
71567;BME280;59403;47.456;19.120;2023-03-13T02:09:40;100552.13;;;4.16;71.21
71567;BME280;59403;47.456;19.120;2023-03-13T02:12:09;100548.59;;;4.17;72.36
71567;BME280;59403;47.456;19.120;2023-03-13T02:14:38;100551.09;;;4.18;72.48
71567;BME280;59403;47.456;19.120;2023-03-13T02:17:07;100552.63;;;4.21;71.85
71567;BME280;59403;47.456;19.120;2023-03-13T02:19:38;100556.81;;;4.23;72.87
71567;BME280;59403;47.456;19.120;2023-03-13T02:22:11;100560.38;;;4.22;72.17
71567;BME280;59403;47.456;19.120;2023-03-13T02:24:45;100553.84;;;4.28;72.51
71567;BME280;59403;47.456;19.120;2023-03-13T02:27:17;100557.94;;;4.32;71.66
71567;BME280;59403;47.456;19.120;2023-03-13T02:29:46;100535.75;;;4.25;71.69
71567;BME280;59403;47.456;19.120;2023-03-13T02:32:13;100524.78;;;4.20;71.50
71567;BME280;59403;47.456;19.120;2023-03-13T02:34:42;100551.28;;;4.39;71.03
71567;BME280;59403;47.456;19.120;2023-03-13T02:37:11;100531.47;;;4.24;71.86
71567;BME280;59403;47.456;19.120;2023-03-13T02:39:44;100504.25;;;4.14;70.89
71567;BME280;59403;47.456;19.120;2023-03-13T02:42:12;100551.16;;;4.40;71.60
71567;BME280;59403;47.456;19.120;2023-03-13T02:44:41;100549.59;;;4.38;70.70
71567;BME280;59403;47.456;19.120;2023-03-13T02:47:11;100552.22;;;4.38;71.02
71567;BME280;59403;47.456;19.120;2023-03-13T02:49:38;100553.91;;;4.39;71.15
71567;BME280;59403;47.456;19.120;2023-03-13T02:52:12;100552.94;;;4.40;71.20
71567;BME280;59403;47.456;19.120;2023-03-13T02:54:40;100550.56;;;4.37;71.32
71567;BME280;59403;47.456;19.120;2023-03-13T02:57:09;100554.03;;;4.37;71.55
71567;BME280;59403;47.456;19.120;2023-03-13T02:59:36;100527.88;;;4.25;71.92
71567;BME280;59403;47.456;19.120;2023-03-13T03:02:05;100554.84;;;4.38;72.26
71567;BME280;59403;47.456;19.120;2023-03-13T03:04:32;100561.28;;;4.34;72.02
71567;BME280;59403;47.456;19.120;2023-03-13T03:06:59;100567.56;;;4.31;72.59
71567;BME280;59403;47.456;19.120;2023-03-13T03:09:26;100573.91;;;4.29;72.78
71567;BME280;59403;47.456;19.120;2023-03-13T03:11:53;100577.56;;;4.26;73.22
71567;BME280;59403;47.456;19.120;2023-03-13T03:14:19;100571.47;;;4.26;73.40
71567;BME280;59403;47.456;19.120;2023-03-13T03:16:46;100575.66;;;4.28;73.05
71567;BME280;59403;47.456;19.120;2023-03-13T03:19:15;100579.13;;;4.29;73.10
71567;BME280;59403;47.456;19.120;2023-03-13T03:21:42;100572.44;;;4.25;74.04
71567;BME280;59403;47.456;19.120;2023-03-13T03:24:09;100581.59;;;4.19;73.70
71567;BME280;59403;47.456;19.120;2023-03-13T03:26:36;100576.47;;;4.18;73.90
71567;BME280;59403;47.456;19.120;2023-03-13T03:29:03;100579.31;;;4.15;74.58
71567;BME280;59403;47.456;19.120;2023-03-13T03:31:32;100576.06;;;4.11;75.27
71567;BME280;59403;47.456;19.120;2023-03-13T03:33:59;100565.91;;;4.07;75.14
71567;BME280;59403;47.456;19.120;2023-03-13T03:36:28;100566.37;;;4.01;75.73
71567;BME280;59403;47.456;19.120;2023-03-13T03:38:55;100559.66;;;3.97;77.33
71567;BME280;59403;47.456;19.120;2023-03-13T03:41:21;100566.19;;;3.91;76.76
71567;BME280;59403;47.456;19.120;2023-03-13T03:43:48;100570.81;;;3.88;76.92
71567;BME280;59403;47.456;19.120;2023-03-13T03:46:16;100566.88;;;3.82;78.13
71567;BME280;59403;47.456;19.120;2023-03-13T03:48:42;100547.62;;;3.71;79.35
71567;BME280;59403;47.456;19.120;2023-03-13T03:51:10;100566.44;;;3.76;78.84
71567;BME280;59403;47.456;19.120;2023-03-13T03:53:38;100555.81;;;3.66;78.31
71567;BME280;59403;47.456;19.120;2023-03-13T03:56:06;100565.09;;;3.70;79.86
71567;BME280;59403;47.456;19.120;2023-03-13T03:58:33;100575.06;;;3.65;80.22
71567;BME280;59403;47.456;19.120;2023-03-13T04:01:00;100535.44;;;3.46;80.36
71567;BME280;59403;47.456;19.120;2023-03-13T04:03:27;100580.66;;;3.61;79.67
71567;BME280;59403;47.456;19.120;2023-03-13T04:05:54;100579.06;;;3.58;81.10
71567;BME280;59403;47.456;19.120;2023-03-13T04:08:21;100556.59;;;3.43;81.23
71567;BME280;59403;47.456;19.120;2023-03-13T04:10:49;100578.03;;;3.48;81.41
71567;BME280;59403;47.456;19.120;2023-03-13T04:13:16;100596.06;;;3.53;81.03
71567;BME280;59403;47.456;19.120;2023-03-13T04:15:44;100595.94;;;3.54;81.97
71567;BME280;59403;47.456;19.120;2023-03-13T04:18:11;100596.87;;;3.53;81.34
71567;BME280;59403;47.456;19.120;2023-03-13T04:20:38;100577.31;;;3.46;82.18
71567;BME280;59403;47.456;19.120;2023-03-13T04:23:05;100599.37;;;3.55;81.57
71567;BME280;59403;47.456;19.120;2023-03-13T04:26:04;100605.69;;;3.52;81.89
71567;BME280;59403;47.456;19.120;2023-03-13T04:28:31;100621.28;;;3.54;81.79
71567;BME280;59403;47.456;19.120;2023-03-13T04:30:58;100613.44;;;3.54;82.53
71567;BME280;59403;47.456;19.120;2023-03-13T04:33:26;100623.16;;;3.52;81.79
71567;BME280;59403;47.456;19.120;2023-03-13T04:35:53;100613.53;;;3.52;82.36
71567;BME280;59403;47.456;19.120;2023-03-13T04:38:19;100594.81;;;3.33;82.25
71567;BME280;59403;47.456;19.120;2023-03-13T04:40:46;100631.03;;;3.52;82.87
71567;BME280;59403;47.456;19.120;2023-03-13T04:43:15;100575.03;;;3.29;82.02
71567;BME280;59403;47.456;19.120;2023-03-13T04:45:42;100619.19;;;3.46;83.35
71567;BME280;59403;47.456;19.120;2023-03-13T04:48:09;100612.19;;;3.46;83.33
71567;BME280;59403;47.456;19.120;2023-03-13T04:50:36;100609.56;;;3.46;83.60
71567;BME280;59403;47.456;19.120;2023-03-13T04:53:03;100594.72;;;3.34;82.92
71567;BME280;59403;47.456;19.120;2023-03-13T04:55:30;100612.28;;;3.45;82.93
71567;BME280;59403;47.456;19.120;2023-03-13T04:57:57;100620.25;;;3.43;83.37
71567;BME280;59403;47.456;19.120;2023-03-13T05:00:25;100618.69;;;3.41;83.62
71567;BME280;59403;47.456;19.120;2023-03-13T05:02:53;100620.25;;;3.43;83.86
71567;BME280;59403;47.456;19.120;2023-03-13T05:05:20;100598.47;;;3.30;83.94
71567;BME280;59403;47.456;19.120;2023-03-13T05:07:46;100630.84;;;3.42;83.47
71567;BME280;59403;47.456;19.120;2023-03-13T05:10:13;100628.62;;;3.36;82.94
71567;BME280;59403;47.456;19.120;2023-03-13T05:12:40;100635.22;;;3.41;82.88
71567;BME280;59403;47.456;19.120;2023-03-13T05:15:08;100638.81;;;3.40;83.23
71567;BME280;59403;47.456;19.120;2023-03-13T05:17:36;100634.38;;;3.41;83.36
71567;BME280;59403;47.456;19.120;2023-03-13T05:20:04;100642.88;;;3.44;83.91
71567;BME280;59403;47.456;19.120;2023-03-13T05:22:32;100647.88;;;3.47;83.29
71567;BME280;59403;47.456;19.120;2023-03-13T05:24:59;100647.06;;;3.47;82.84
71567;BME280;59403;47.456;19.120;2023-03-13T05:27:26;100650.59;;;3.46;83.64
71567;BME280;59403;47.456;19.120;2023-03-13T05:29:53;100646.94;;;3.48;83.22
71567;BME280;59403;47.456;19.120;2023-03-13T05:32:20;100645.19;;;3.49;82.97
71567;BME280;59403;47.456;19.120;2023-03-13T05:34:49;100652.81;;;3.52;83.40
71567;BME280;59403;47.456;19.120;2023-03-13T05:37:16;100658.91;;;3.53;83.35
71567;BME280;59403;47.456;19.120;2023-03-13T05:39:43;100638.81;;;3.40;83.69
71567;BME280;59403;47.456;19.120;2023-03-13T05:42:10;100673.53;;;3.55;83.18
71567;BME280;59403;47.456;19.120;2023-03-13T05:44:37;100660.44;;;3.55;83.08
71567;BME280;59403;47.456;19.120;2023-03-13T05:47:04;100664.75;;;3.56;83.73
71567;BME280;59403;47.456;19.120;2023-03-13T05:49:31;100664.53;;;3.59;83.36
71567;BME280;59403;47.456;19.120;2023-03-13T05:51:59;100652.28;;;3.60;83.56
71567;BME280;59403;47.456;19.120;2023-03-13T05:54:26;100652.91;;;3.63;83.64
71567;BME280;59403;47.456;19.120;2023-03-13T05:56:53;100655.31;;;3.66;83.55
71567;BME280;59403;47.456;19.120;2023-03-13T05:59:20;100648.19;;;3.68;83.62
71567;BME280;59403;47.456;19.120;2023-03-13T06:01:47;100654.25;;;3.69;83.46
71567;BME280;59403;47.456;19.120;2023-03-13T06:04:14;100649.63;;;3.72;83.70
71567;BME280;59403;47.456;19.120;2023-03-13T06:06:41;100651.22;;;3.75;83.15
71567;BME280;59403;47.456;19.120;2023-03-13T06:09:09;100645.25;;;3.73;84.11
71567;BME280;59403;47.456;19.120;2023-03-13T06:11:36;100657.69;;;3.82;84.03
71567;BME280;59403;47.456;19.120;2023-03-13T06:14:03;100652.25;;;3.85;83.71
71567;BME280;59403;47.456;19.120;2023-03-13T06:16:30;100650.25;;;3.88;83.75
71567;BME280;59403;47.456;19.120;2023-03-13T06:18:57;100648.25;;;3.92;83.46
71567;BME280;59403;47.456;19.120;2023-03-13T06:21:24;100645.19;;;3.98;83.13
71567;BME280;59403;47.456;19.120;2023-03-13T06:23:51;100650.22;;;4.01;82.88
71567;BME280;59403;47.456;19.120;2023-03-13T06:26:21;100647.25;;;4.05;82.39
71567;BME280;59403;47.456;19.120;2023-03-13T06:28:49;100643.38;;;4.11;81.83
71567;BME280;59403;47.456;19.120;2023-03-13T06:31:16;100647.22;;;4.18;82.32
71567;BME280;59403;47.456;19.120;2023-03-13T06:33:43;100654.44;;;4.27;81.33
71567;BME280;59403;47.456;19.120;2023-03-13T06:36:10;100648.94;;;4.30;80.17
71567;BME280;59403;47.456;19.120;2023-03-13T06:38:37;100646.34;;;4.30;79.69
71567;BME280;59403;47.456;19.120;2023-03-13T06:41:06;100650.53;;;4.32;79.71
71567;BME280;59403;47.456;19.120;2023-03-13T06:43:34;100649.94;;;4.40;79.27
71567;BME280;59403;47.456;19.120;2023-03-13T06:46:04;100651.69;;;4.52;78.53
71567;BME280;59403;47.456;19.120;2023-03-13T06:48:31;100646.72;;;4.60;77.84
71567;BME280;59403;47.456;19.120;2023-03-13T06:50:58;100646.75;;;4.71;77.50
71567;BME280;59403;47.456;19.120;2023-03-13T06:53:25;100648.09;;;4.77;76.99
71567;BME280;59403;47.456;19.120;2023-03-13T06:55:52;100647.16;;;4.78;75.28
71567;BME280;59403;47.456;19.120;2023-03-13T06:58:19;100650.72;;;4.77;75.54
71567;BME280;59403;47.456;19.120;2023-03-13T07:00:47;100637.72;;;4.75;75.13
71567;BME280;59403;47.456;19.120;2023-03-13T07:03:14;100648.13;;;4.88;75.16
71567;BME280;59403;47.456;19.120;2023-03-13T07:05:41;100645.41;;;4.89;74.96
71567;BME280;59403;47.456;19.120;2023-03-13T07:08:07;100647.91;;;4.91;74.50
71567;BME280;59403;47.456;19.120;2023-03-13T07:10:34;100646.13;;;4.91;74.02
71567;BME280;59403;47.456;19.120;2023-03-13T07:13:01;100647.06;;;4.90;73.75
71567;BME280;59403;47.456;19.120;2023-03-13T07:15:28;100652.91;;;4.94;73.54
71567;BME280;59403;47.456;19.120;2023-03-13T07:17:57;100645.31;;;5.02;73.84
71567;BME280;59403;47.456;19.120;2023-03-13T07:20:24;100651.16;;;5.05;73.20
71567;BME280;59403;47.456;19.120;2023-03-13T07:22:51;100650.69;;;5.11;72.59
71567;BME280;59403;47.456;19.120;2023-03-13T07:25:18;100652.62;;;5.20;72.99
71567;BME280;59403;47.456;19.120;2023-03-13T07:27:49;100649.63;;;5.25;72.50
71567;BME280;59403;47.456;19.120;2023-03-13T07:30:17;100645.72;;;5.30;71.55
71567;BME280;59403;47.456;19.120;2023-03-13T07:32:44;100637.25;;;5.38;71.41
71567;BME280;59403;47.456;19.120;2023-03-13T07:35:13;100634.75;;;5.36;70.35
71567;BME280;59403;47.456;19.120;2023-03-13T07:37:40;100641.22;;;5.43;70.78
71567;BME280;59403;47.456;19.120;2023-03-13T07:40:07;100627.47;;;5.51;70.43
71567;BME280;59403;47.456;19.120;2023-03-13T07:42:35;100622.47;;;5.59;69.61
71567;BME280;59403;47.456;19.120;2023-03-13T07:45:02;100624.72;;;5.63;68.27
71567;BME280;59403;47.456;19.120;2023-03-13T07:47:29;100632.22;;;5.79;67.71
71567;BME280;59403;47.456;19.120;2023-03-13T07:49:56;100627.09;;;5.77;67.14
71567;BME280;59403;47.456;19.120;2023-03-13T07:52:25;100621.41;;;5.84;67.49
71567;BME280;59403;47.456;19.120;2023-03-13T07:54:52;100613.16;;;5.88;68.15
71567;BME280;59403;47.456;19.120;2023-03-13T07:57:19;100610.72;;;5.96;67.82
71567;BME280;59403;47.456;19.120;2023-03-13T07:59:46;100616.25;;;6.04;66.50
71567;BME280;59403;47.456;19.120;2023-03-13T08:02:13;100613.22;;;6.09;66.22
71567;BME280;59403;47.456;19.120;2023-03-13T08:04:41;100612.38;;;6.19;66.47
71567;BME280;59403;47.456;19.120;2023-03-13T08:07:08;100610.72;;;6.18;65.40
71567;BME280;59403;47.456;19.120;2023-03-13T08:09:36;100606.84;;;6.22;64.73
71567;BME280;59403;47.456;19.120;2023-03-13T08:12:04;100598.50;;;6.17;64.78
71567;BME280;59403;47.456;19.120;2023-03-13T08:14:30;100598.03;;;6.23;63.93
71567;BME280;59403;47.456;19.120;2023-03-13T08:16:57;100598.53;;;6.38;63.58
71567;BME280;59403;47.456;19.120;2023-03-13T08:19:24;100597.34;;;6.42;62.76
71567;BME280;59403;47.456;19.120;2023-03-13T08:21:51;100584.50;;;6.48;62.36
71567;BME280;59403;47.456;19.120;2023-03-13T08:24:18;100587.72;;;6.52;61.59
71567;BME280;59403;47.456;19.120;2023-03-13T08:26:47;100582.16;;;6.66;61.90
71567;BME280;59403;47.456;19.120;2023-03-13T08:29:14;100577.44;;;6.80;61.16
71567;BME280;59403;47.456;19.120;2023-03-13T08:31:43;100570.28;;;6.92;60.17
71567;BME280;59403;47.456;19.120;2023-03-13T08:34:10;100573.00;;;7.02;60.23
71567;BME280;59403;47.456;19.120;2023-03-13T08:36:37;100567.62;;;7.13;60.05
71567;BME280;59403;47.456;19.120;2023-03-13T08:39:05;100567.38;;;7.16;60.38
71567;BME280;59403;47.456;19.120;2023-03-13T08:41:34;100564.28;;;7.31;59.14
71567;BME280;59403;47.456;19.120;2023-03-13T08:44:03;100561.81;;;7.39;59.38
71567;BME280;59403;47.456;19.120;2023-03-13T08:46:32;100557.31;;;7.60;59.27
71567;BME280;59403;47.456;19.120;2023-03-13T08:49:00;100556.78;;;7.76;58.02
71567;BME280;59403;47.456;19.120;2023-03-13T08:51:27;100557.41;;;7.98;57.13
71567;BME280;59403;47.456;19.120;2023-03-13T08:53:55;100551.84;;;8.01;54.57
71567;BME280;59403;47.456;19.120;2023-03-13T08:56:23;100547.28;;;8.03;55.49
71567;BME280;59403;47.456;19.120;2023-03-13T08:58:51;100539.53;;;8.31;54.18
71567;BME280;59403;47.456;19.120;2023-03-13T09:01:22;100537.88;;;8.30;54.28
71567;BME280;59403;47.456;19.120;2023-03-13T09:03:49;100537.72;;;8.60;54.69
71567;BME280;59403;47.456;19.120;2023-03-13T09:06:17;100531.31;;;8.72;52.48
71567;BME280;59403;47.456;19.120;2023-03-13T09:08:44;100528.78;;;8.80;52.80
71567;BME280;59403;47.456;19.120;2023-03-13T09:11:12;100534.22;;;8.78;52.93
71567;BME280;59403;47.456;19.120;2023-03-13T09:13:41;100532.63;;;8.95;53.18
71567;BME280;59403;47.456;19.120;2023-03-13T09:16:10;100518.16;;;9.08;53.31
71567;BME280;59403;47.456;19.120;2023-03-13T09:18:39;100526.56;;;9.31;52.61
71567;BME280;59403;47.456;19.120;2023-03-13T09:21:09;100526.81;;;9.38;53.76
71567;BME280;59403;47.456;19.120;2023-03-13T09:23:37;100521.19;;;9.50;52.28
71567;BME280;59403;47.456;19.120;2023-03-13T09:26:04;100517.91;;;9.66;51.94
71567;BME280;59403;47.456;19.120;2023-03-13T09:28:32;100533.50;;;9.86;50.55
71567;BME280;59403;47.456;19.120;2023-03-13T09:31:05;100511.13;;;9.98;48.95
71567;BME280;59403;47.456;19.120;2023-03-13T09:33:33;100502.63;;;9.77;49.41
71567;BME280;59403;47.456;19.120;2023-03-13T09:36:01;100517.78;;;9.85;49.83
71567;BME280;59403;47.456;19.120;2023-03-13T09:38:28;100500.25;;;10.01;49.31
71567;BME280;59403;47.456;19.120;2023-03-13T09:40:55;100507.53;;;10.17;50.96
71567;BME280;59403;47.456;19.120;2023-03-13T09:43:36;100504.34;;;10.31;50.15
71567;BME280;59403;47.456;19.120;2023-03-13T09:46:12;100497.87;;;10.51;49.18
71567;BME280;59403;47.456;19.120;2023-03-13T09:48:44;100494.37;;;10.94;49.67
71567;BME280;59403;47.456;19.120;2023-03-13T09:51:17;100490.44;;;10.98;48.64
71567;BME280;59403;47.456;19.120;2023-03-13T09:53:48;100493.81;;;11.08;49.33
71567;BME280;59403;47.456;19.120;2023-03-13T09:56:21;100493.59;;;11.01;48.57
71567;BME280;59403;47.456;19.120;2023-03-13T09:58:53;100501.75;;;11.08;48.69
71567;BME280;59403;47.456;19.120;2023-03-13T10:01:25;100494.50;;;11.18;49.03
71567;BME280;59403;47.456;19.120;2023-03-13T10:04:01;100488.44;;;11.25;47.81
71567;BME280;59403;47.456;19.120;2023-03-13T10:06:37;100489.84;;;11.12;48.16
71567;BME280;59403;47.456;19.120;2023-03-13T10:09:15;100480.66;;;11.32;48.05
71567;BME280;59403;47.456;19.120;2023-03-13T10:11:52;100475.44;;;11.48;47.81
71567;BME280;59403;47.456;19.120;2023-03-13T10:14:28;100468.50;;;11.55;47.19
71567;BME280;59403;47.456;19.120;2023-03-13T10:17:01;100464.06;;;11.72;48.17
71567;BME280;59403;47.456;19.120;2023-03-13T10:19:33;100464.56;;;11.75;47.56
71567;BME280;59403;47.456;19.120;2023-03-13T10:22:11;100458.78;;;11.80;47.18
71567;BME280;59403;47.456;19.120;2023-03-13T10:24:43;100466.09;;;11.86;45.94
71567;BME280;59403;47.456;19.120;2023-03-13T10:27:14;100466.69;;;11.64;45.98
71567;BME280;59403;47.456;19.120;2023-03-13T10:29:41;100460.13;;;11.84;46.81
71567;BME280;59403;47.456;19.120;2023-03-13T10:32:11;100455.34;;;12.03;45.99
71567;BME280;59403;47.456;19.120;2023-03-13T10:34:48;100446.87;;;12.32;45.94
71567;BME280;59403;47.456;19.120;2023-03-13T10:37:21;100455.66;;;12.08;45.41
71567;BME280;59403;47.456;19.120;2023-03-13T10:39:49;100457.16;;;12.19;45.00
71567;BME280;59403;47.456;19.120;2023-03-13T10:42:22;100449.19;;;12.43;43.89
71567;BME280;59403;47.456;19.120;2023-03-13T10:44:57;100447.34;;;12.51;45.33
71567;BME280;59403;47.456;19.120;2023-03-13T10:47:25;100459.00;;;12.26;44.71
71567;BME280;59403;47.456;19.120;2023-03-13T10:49:55;100448.03;;;12.13;44.06
71567;BME280;59403;47.456;19.120;2023-03-13T10:52:33;100437.22;;;12.39;44.27
71567;BME280;59403;47.456;19.120;2023-03-13T10:55:03;100429.91;;;12.73;43.70
71567;BME280;59403;47.456;19.120;2023-03-13T10:57:32;100439.03;;;12.71;45.17
71567;BME280;59403;47.456;19.120;2023-03-13T11:00:27;100434.69;;;12.78;42.46
71567;BME280;59403;47.456;19.120;2023-03-13T11:02:54;100422.72;;;12.82;44.15
71567;BME280;59403;47.456;19.120;2023-03-13T11:05:43;100415.25;;;12.77;42.31
71567;BME280;59403;47.456;19.120;2023-03-13T11:08:19;100420.84;;;12.98;42.80
71567;BME280;59403;47.456;19.120;2023-03-13T11:10:57;100406.91;;;13.04;42.75
71567;BME280;59403;47.456;19.120;2023-03-13T11:13:30;100412.47;;;13.25;42.41
71567;BME280;59403;47.456;19.120;2023-03-13T11:16:04;100402.78;;;13.32;43.08
71567;BME280;59403;47.456;19.120;2023-03-13T11:18:39;100399.66;;;13.29;42.58
71567;BME280;59403;47.456;19.120;2023-03-13T11:21:13;100397.31;;;13.26;43.26
71567;BME280;59403;47.456;19.120;2023-03-13T11:23:49;100395.34;;;13.20;42.54
71567;BME280;59403;47.456;19.120;2023-03-13T11:26:25;100395.56;;;13.10;42.74
71567;BME280;59403;47.456;19.120;2023-03-13T11:28:57;100391.69;;;13.21;42.53
71567;BME280;59403;47.456;19.120;2023-03-13T11:31:31;100385.13;;;13.39;43.22
71567;BME280;59403;47.456;19.120;2023-03-13T11:34:05;100376.34;;;13.53;42.99
71567;BME280;59403;47.456;19.120;2023-03-13T11:36:34;100381.25;;;13.50;43.34
71567;BME280;59403;47.456;19.120;2023-03-13T11:39:19;100374.78;;;13.44;43.80
71567;BME280;59403;47.456;19.120;2023-03-13T11:41:59;100359.59;;;13.53;42.48
71567;BME280;59403;47.456;19.120;2023-03-13T11:44:30;100351.44;;;13.77;42.35
71567;BME280;59403;47.456;19.120;2023-03-13T11:50:17;100335.34;;;13.71;42.01
71567;BME280;59403;47.456;19.120;2023-03-13T11:53:00;100331.50;;;14.10;41.99
71567;BME280;59403;47.456;19.120;2023-03-13T11:55:39;100329.69;;;14.25;41.51
71567;BME280;59403;47.456;19.120;2023-03-13T11:58:25;100328.09;;;14.16;42.03
71567;BME280;59403;47.456;19.120;2023-03-13T12:00:58;100324.34;;;14.25;40.90
71567;BME280;59403;47.456;19.120;2023-03-13T12:03:33;100321.75;;;14.40;41.03
71567;BME280;59403;47.456;19.120;2023-03-13T12:06:02;100308.94;;;14.35;41.64
71567;BME280;59403;47.456;19.120;2023-03-13T12:08:34;100304.34;;;14.44;41.25
71567;BME280;59403;47.456;19.120;2023-03-13T12:11:10;100297.72;;;14.25;40.97
71567;BME280;59403;47.456;19.120;2023-03-13T12:13:41;100300.06;;;14.06;42.32
71567;BME280;59403;47.456;19.120;2023-03-13T12:16:13;100290.41;;;13.90;41.99
71567;BME280;59403;47.456;19.120;2023-03-13T12:18:43;100291.19;;;13.76;42.63
71567;BME280;59403;47.456;19.120;2023-03-13T12:21:17;100287.16;;;13.65;42.71
71567;BME280;59403;47.456;19.120;2023-03-13T12:23:49;100269.81;;;13.47;42.68
71567;BME280;59403;47.456;19.120;2023-03-13T12:26:21;100283.19;;;13.39;43.18
71567;BME280;59403;47.456;19.120;2023-03-13T12:29:04;100276.69;;;13.19;44.69
71567;BME280;59403;47.456;19.120;2023-03-13T12:31:35;100266.88;;;13.19;43.35
71567;BME280;59403;47.456;19.120;2023-03-13T12:34:11;100263.38;;;13.19;43.93
71567;BME280;59403;47.456;19.120;2023-03-13T12:36:44;100265.09;;;13.34;43.86
71567;BME280;59403;47.456;19.120;2023-03-13T12:39:24;100265.56;;;13.38;44.02
71567;BME280;59403;47.456;19.120;2023-03-13T12:42:18;100260.72;;;13.41;44.20
71567;BME280;59403;47.456;19.120;2023-03-13T12:44:47;100261.66;;;13.48;44.39
71567;BME280;59403;47.456;19.120;2023-03-13T12:47:17;100255.38;;;13.64;43.54
71567;BME280;59403;47.456;19.120;2023-03-13T12:58:49;100217.97;;;14.53;41.31
71567;BME280;59403;47.456;19.120;2023-03-13T13:01:29;100216.59;;;14.57;41.41
71567;BME280;59403;47.456;19.120;2023-03-13T13:03:59;100209.13;;;14.67;41.65
71567;BME280;59403;47.456;19.120;2023-03-13T13:06:29;100202.94;;;14.81;41.85
71567;BME280;59403;47.456;19.120;2023-03-13T13:09:22;100187.81;;;14.67;41.84
71567;BME280;59403;47.456;19.120;2023-03-13T13:11:51;100188.22;;;15.06;41.25
71567;BME280;59403;47.456;19.120;2023-03-13T13:18:09;100177.84;;;14.75;41.25
71567;BME280;59403;47.456;19.120;2023-03-13T13:20:44;100176.34;;;14.88;41.83